sensor_id;sensor_type;location;lat;lon;timestamp;temperature;humidity
64634;DHT22;51043;52.406;9.690;2022-09-13T00:02:19;14.90;99.90
64634;DHT22;51043;52.406;9.690;2022-09-13T00:04:46;14.90;99.90
64634;DHT22;51043;52.406;9.690;2022-09-13T00:07:12;14.80;99.90
64634;DHT22;51043;52.406;9.690;2022-09-13T00:09:39;14.80;99.90
64634;DHT22;51043;52.406;9.690;2022-09-13T00:12:06;14.80;99.90
64634;DHT22;51043;52.406;9.690;2022-09-13T00:14:33;14.80;99.90
64634;DHT22;51043;52.406;9.690;2022-09-13T00:17:00;14.90;99.90
64634;DHT22;51043;52.406;9.690;2022-09-13T00:19:27;14.90;99.90
64634;DHT22;51043;52.406;9.690;2022-09-13T00:21:53;14.80;99.90
64634;DHT22;51043;52.406;9.690;2022-09-13T00:24:20;14.90;99.90
64634;DHT22;51043;52.406;9.690;2022-09-13T00:26:47;14.90;99.90
64634;DHT22;51043;52.406;9.690;2022-09-13T00:29:14;14.80;99.90
64634;DHT22;51043;52.406;9.690;2022-09-13T00:31:41;14.90;99.90
64634;DHT22;51043;52.406;9.690;2022-09-13T00:34:08;15.00;99.90
64634;DHT22;51043;52.406;9.690;2022-09-13T00:36:35;15.00;99.90
64634;DHT22;51043;52.406;9.690;2022-09-13T00:39:03;15.00;99.90
64634;DHT22;51043;52.406;9.690;2022-09-13T00:41:30;14.90;99.90
64634;DHT22;51043;52.406;9.690;2022-09-13T00:43:59;14.80;99.90
64634;DHT22;51043;52.406;9.690;2022-09-13T00:46:52;14.90;99.90
64634;DHT22;51043;52.406;9.690;2022-09-13T00:49:37;14.80;99.90
64634;DHT22;51043;52.406;9.690;2022-09-13T00:52:14;14.80;99.90
64634;DHT22;51043;52.406;9.690;2022-09-13T00:54:45;14.80;99.90
64634;DHT22;51043;52.406;9.690;2022-09-13T00:57:15;14.90;99.90
64634;DHT22;51043;52.406;9.690;2022-09-13T00:59:46;14.90;99.90
64634;DHT22;51043;52.406;9.690;2022-09-13T01:02:14;14.80;99.90
64634;DHT22;51043;52.406;9.690;2022-09-13T01:04:42;14.80;99.90
64634;DHT22;51043;52.406;9.690;2022-09-13T01:07:12;14.70;99.90
64634;DHT22;51043;52.406;9.690;2022-09-13T01:09:43;14.70;99.90
64634;DHT22;51043;52.406;9.690;2022-09-13T01:15:05;14.80;99.90
64634;DHT22;51043;52.406;9.690;2022-09-13T01:17:33;14.80;99.90
64634;DHT22;51043;52.406;9.690;2022-09-13T01:20:02;15.00;99.90
64634;DHT22;51043;52.406;9.690;2022-09-13T01:23:07;14.80;99.90
64634;DHT22;51043;52.406;9.690;2022-09-13T01:25:48;14.90;99.90
64634;DHT22;51043;52.406;9.690;2022-09-13T01:31:26;15.00;99.90
64634;DHT22;51043;52.406;9.690;2022-09-13T01:34:33;15.10;99.90
64634;DHT22;51043;52.406;9.690;2022-09-13T01:46:04;15.20;99.90
64634;DHT22;51043;52.406;9.690;2022-09-13T01:48:53;15.20;99.90
64634;DHT22;51043;52.406;9.690;2022-09-13T01:51:49;15.20;99.90
64634;DHT22;51043;52.406;9.690;2022-09-13T01:54:47;15.20;99.90
64634;DHT22;51043;52.406;9.690;2022-09-13T02:00:06;15.20;99.90
64634;DHT22;51043;52.406;9.690;2022-09-13T02:03:00;15.20;99.90
64634;DHT22;51043;52.406;9.690;2022-09-13T02:05:55;15.30;99.90
64634;DHT22;51043;52.406;9.690;2022-09-13T02:11:12;15.40;99.90
64634;DHT22;51043;52.406;9.690;2022-09-13T02:13:46;15.40;99.90
64634;DHT22;51043;52.406;9.690;2022-09-13T02:16:24;15.50;99.90
64634;DHT22;51043;52.406;9.690;2022-09-13T02:18:57;15.50;99.90
64634;DHT22;51043;52.406;9.690;2022-09-13T02:21:32;15.40;99.90
64634;DHT22;51043;52.406;9.690;2022-09-13T02:24:18;15.60;99.90
64634;DHT22;51043;52.406;9.690;2022-09-13T02:26:50;15.60;99.90
64634;DHT22;51043;52.406;9.690;2022-09-13T02:29:20;15.60;99.90
64634;DHT22;51043;52.406;9.690;2022-09-13T02:34:57;15.80;99.90
64634;DHT22;51043;52.406;9.690;2022-09-13T02:37:27;15.80;99.90
64634;DHT22;51043;52.406;9.690;2022-09-13T02:40:00;15.90;99.90
64634;DHT22;51043;52.406;9.690;2022-09-13T02:42:36;15.80;99.90
64634;DHT22;51043;52.406;9.690;2022-09-13T02:45:04;15.70;99.90
64634;DHT22;51043;52.406;9.690;2022-09-13T02:50:26;15.40;99.90
64634;DHT22;51043;52.406;9.690;2022-09-13T02:56:28;15.10;99.90
64634;DHT22;51043;52.406;9.690;2022-09-13T02:59:02;15.00;99.90
64634;DHT22;51043;52.406;9.690;2022-09-13T03:01:32;14.90;99.90
64634;DHT22;51043;52.406;9.690;2022-09-13T03:04:01;14.90;99.90
64634;DHT22;51043;52.406;9.690;2022-09-13T03:06:29;14.80;99.90
64634;DHT22;51043;52.406;9.690;2022-09-13T03:09:00;14.80;99.90
64634;DHT22;51043;52.406;9.690;2022-09-13T03:11:56;14.70;99.90
64634;DHT22;51043;52.406;9.690;2022-09-13T03:20:35;14.70;99.90
64634;DHT22;51043;52.406;9.690;2022-09-13T03:26:41;14.70;99.90
64634;DHT22;51043;52.406;9.690;2022-09-13T03:34:36;14.70;99.90
64634;DHT22;51043;52.406;9.690;2022-09-13T03:40:11;14.70;99.90
64634;DHT22;51043;52.406;9.690;2022-09-13T03:42:47;14.80;99.90
64634;DHT22;51043;52.406;9.690;2022-09-13T03:45:18;14.80;99.90
64634;DHT22;51043;52.406;9.690;2022-09-13T03:47:48;14.80;99.90
64634;DHT22;51043;52.406;9.690;2022-09-13T03:50:19;14.80;99.90
64634;DHT22;51043;52.406;9.690;2022-09-13T03:53:02;14.80;99.90
64634;DHT22;51043;52.406;9.690;2022-09-13T03:55:31;14.80;99.90
64634;DHT22;51043;52.406;9.690;2022-09-13T03:58:01;14.80;99.90
64634;DHT22;51043;52.406;9.690;2022-09-13T04:00:28;15.00;99.90
64634;DHT22;51043;52.406;9.690;2022-09-13T04:02:56;14.90;99.90
64634;DHT22;51043;52.406;9.690;2022-09-13T04:05:25;14.90;99.90
64634;DHT22;51043;52.406;9.690;2022-09-13T04:07:52;14.90;99.90
64634;DHT22;51043;52.406;9.690;2022-09-13T04:10:22;14.90;99.90
64634;DHT22;51043;52.406;9.690;2022-09-13T04:12:53;14.90;99.90
64634;DHT22;51043;52.406;9.690;2022-09-13T04:15:20;14.90;99.90
64634;DHT22;51043;52.406;9.690;2022-09-13T04:17:48;15.00;99.90
64634;DHT22;51043;52.406;9.690;2022-09-13T04:23:54;15.00;99.90
64634;DHT22;51043;52.406;9.690;2022-09-13T04:29:34;15.00;99.90
64634;DHT22;51043;52.406;9.690;2022-09-13T04:32:01;15.10;99.90
64634;DHT22;51043;52.406;9.690;2022-09-13T04:34:28;15.10;99.90
64634;DHT22;51043;52.406;9.690;2022-09-13T04:36:56;15.20;99.90
64634;DHT22;51043;52.406;9.690;2022-09-13T04:39:23;15.10;99.90
64634;DHT22;51043;52.406;9.690;2022-09-13T04:41:50;15.10;99.90
64634;DHT22;51043;52.406;9.690;2022-09-13T04:44:21;15.10;99.90
64634;DHT22;51043;52.406;9.690;2022-09-13T04:46:50;15.20;99.90
64634;DHT22;51043;52.406;9.690;2022-09-13T04:49:17;15.20;99.90
64634;DHT22;51043;52.406;9.690;2022-09-13T04:51:45;15.20;99.90
64634;DHT22;51043;52.406;9.690;2022-09-13T04:54:13;15.20;99.90
64634;DHT22;51043;52.406;9.690;2022-09-13T04:56:42;15.40;99.90
64634;DHT22;51043;52.406;9.690;2022-09-13T04:59:10;15.20;99.90
64634;DHT22;51043;52.406;9.690;2022-09-13T05:01:37;15.20;99.90
64634;DHT22;51043;52.406;9.690;2022-09-13T05:04:06;15.20;99.90
64634;DHT22;51043;52.406;9.690;2022-09-13T05:06:34;15.20;99.90
64634;DHT22;51043;52.406;9.690;2022-09-13T05:09:02;15.20;99.90
64634;DHT22;51043;52.406;9.690;2022-09-13T05:11:29;15.20;99.90
64634;DHT22;51043;52.406;9.690;2022-09-13T05:13:58;15.20;99.90
64634;DHT22;51043;52.406;9.690;2022-09-13T05:16:28;15.30;99.90
64634;DHT22;51043;52.406;9.690;2022-09-13T05:18:56;15.20;99.90
64634;DHT22;51043;52.406;9.690;2022-09-13T05:21:27;15.30;99.90
64634;DHT22;51043;52.406;9.690;2022-09-13T05:23:56;15.30;99.90
64634;DHT22;51043;52.406;9.690;2022-09-13T05:26:27;15.30;99.90
64634;DHT22;51043;52.406;9.690;2022-09-13T05:28:59;15.30;99.90
64634;DHT22;51043;52.406;9.690;2022-09-13T05:31:33;15.30;99.90
64634;DHT22;51043;52.406;9.690;2022-09-13T05:34:08;15.30;99.90
64634;DHT22;51043;52.406;9.690;2022-09-13T05:36:36;15.30;99.90
64634;DHT22;51043;52.406;9.690;2022-09-13T05:39:07;15.30;99.90
64634;DHT22;51043;52.406;9.690;2022-09-13T05:41:54;15.30;99.90
64634;DHT22;51043;52.406;9.690;2022-09-13T05:44:21;15.40;99.90
64634;DHT22;51043;52.406;9.690;2022-09-13T05:46:48;15.40;99.90
64634;DHT22;51043;52.406;9.690;2022-09-13T05:49:15;15.40;99.90
64634;DHT22;51043;52.406;9.690;2022-09-13T05:51:47;15.40;99.90
64634;DHT22;51043;52.406;9.690;2022-09-13T05:54:14;15.50;99.90
64634;DHT22;51043;52.406;9.690;2022-09-13T05:56:40;15.50;99.90
64634;DHT22;51043;52.406;9.690;2022-09-13T05:59:11;15.60;99.90
64634;DHT22;51043;52.406;9.690;2022-09-13T06:01:39;15.60;99.90
64634;DHT22;51043;52.406;9.690;2022-09-13T06:04:06;15.70;99.90
64634;DHT22;51043;52.406;9.690;2022-09-13T06:06:33;15.70;99.90
64634;DHT22;51043;52.406;9.690;2022-09-13T06:09:00;15.80;99.90
64634;DHT22;51043;52.406;9.690;2022-09-13T06:11:29;15.90;99.90
64634;DHT22;51043;52.406;9.690;2022-09-13T06:13:57;15.90;99.90
64634;DHT22;51043;52.406;9.690;2022-09-13T06:16:23;15.90;99.90
64634;DHT22;51043;52.406;9.690;2022-09-13T06:18:50;16.00;99.90
64634;DHT22;51043;52.406;9.690;2022-09-13T06:21:20;16.00;99.90
64634;DHT22;51043;52.406;9.690;2022-09-13T06:23:50;16.00;99.90
64634;DHT22;51043;52.406;9.690;2022-09-13T06:26:20;16.00;99.90
64634;DHT22;51043;52.406;9.690;2022-09-13T06:28:50;16.00;99.90
64634;DHT22;51043;52.406;9.690;2022-09-13T06:31:19;16.10;99.90
64634;DHT22;51043;52.406;9.690;2022-09-13T06:33:47;16.20;99.90
64634;DHT22;51043;52.406;9.690;2022-09-13T06:36:17;16.30;99.90
64634;DHT22;51043;52.406;9.690;2022-09-13T06:38:45;16.40;99.90
64634;DHT22;51043;52.406;9.690;2022-09-13T06:41:14;16.40;99.90
64634;DHT22;51043;52.406;9.690;2022-09-13T06:43:45;16.50;99.90
64634;DHT22;51043;52.406;9.690;2022-09-13T06:46:16;16.60;99.90
64634;DHT22;51043;52.406;9.690;2022-09-13T06:48:46;16.60;99.90
64634;DHT22;51043;52.406;9.690;2022-09-13T06:51:16;16.60;99.90
64634;DHT22;51043;52.406;9.690;2022-09-13T06:53:45;16.70;99.90
64634;DHT22;51043;52.406;9.690;2022-09-13T06:56:16;16.80;99.90
64634;DHT22;51043;52.406;9.690;2022-09-13T06:58:44;16.80;99.90
64634;DHT22;51043;52.406;9.690;2022-09-13T07:03:47;17.00;99.90
64634;DHT22;51043;52.406;9.690;2022-09-13T07:06:24;17.00;99.90
64634;DHT22;51043;52.406;9.690;2022-09-13T07:08:53;17.00;99.90
64634;DHT22;51043;52.406;9.690;2022-09-13T07:11:24;17.00;99.90
64634;DHT22;51043;52.406;9.690;2022-09-13T07:13:56;17.00;99.90
64634;DHT22;51043;52.406;9.690;2022-09-13T07:16:28;17.10;99.90
64634;DHT22;51043;52.406;9.690;2022-09-13T07:18:58;17.20;99.90
64634;DHT22;51043;52.406;9.690;2022-09-13T07:21:26;17.10;99.90
64634;DHT22;51043;52.406;9.690;2022-09-13T07:23:54;17.30;99.90
64634;DHT22;51043;52.406;9.690;2022-09-13T07:26:21;17.30;99.90
64634;DHT22;51043;52.406;9.690;2022-09-13T07:28:51;17.40;99.90
64634;DHT22;51043;52.406;9.690;2022-09-13T07:31:20;17.50;99.90
64634;DHT22;51043;52.406;9.690;2022-09-13T07:33:56;17.60;99.90
64634;DHT22;51043;52.406;9.690;2022-09-13T07:36:24;17.70;99.90
64634;DHT22;51043;52.406;9.690;2022-09-13T07:38:51;17.70;99.90
64634;DHT22;51043;52.406;9.690;2022-09-13T07:41:21;17.70;99.90
64634;DHT22;51043;52.406;9.690;2022-09-13T07:43:48;17.70;99.90
64634;DHT22;51043;52.406;9.690;2022-09-13T07:46:21;17.80;99.90
64634;DHT22;51043;52.406;9.690;2022-09-13T07:48:48;17.90;99.90
64634;DHT22;51043;52.406;9.690;2022-09-13T07:51:20;18.00;99.90
64634;DHT22;51043;52.406;9.690;2022-09-13T07:53:48;18.10;99.90
64634;DHT22;51043;52.406;9.690;2022-09-13T07:56:20;18.20;99.90
64634;DHT22;51043;52.406;9.690;2022-09-13T07:58:48;18.30;99.90
64634;DHT22;51043;52.406;9.690;2022-09-13T08:01:19;18.40;99.90
64634;DHT22;51043;52.406;9.690;2022-09-13T08:03:54;18.60;99.90
64634;DHT22;51043;52.406;9.690;2022-09-13T08:06:22;18.70;99.90
64634;DHT22;51043;52.406;9.690;2022-09-13T08:08:49;18.80;99.90
64634;DHT22;51043;52.406;9.690;2022-09-13T08:11:19;18.80;99.90
64634;DHT22;51043;52.406;9.690;2022-09-13T08:13:49;18.70;99.90
64634;DHT22;51043;52.406;9.690;2022-09-13T08:16:18;18.70;99.90
64634;DHT22;51043;52.406;9.690;2022-09-13T08:18:51;18.80;99.90
64634;DHT22;51043;52.406;9.690;2022-09-13T08:21:19;18.90;99.90
64634;DHT22;51043;52.406;9.690;2022-09-13T08:23:46;18.90;99.90
64634;DHT22;51043;52.406;9.690;2022-09-13T08:26:14;18.90;99.90
64634;DHT22;51043;52.406;9.690;2022-09-13T08:28:41;18.90;99.90
64634;DHT22;51043;52.406;9.690;2022-09-13T08:31:11;18.80;99.90
64634;DHT22;51043;52.406;9.690;2022-09-13T08:33:46;18.90;99.90
64634;DHT22;51043;52.406;9.690;2022-09-13T08:36:14;18.90;99.90
64634;DHT22;51043;52.406;9.690;2022-09-13T08:38:46;18.90;99.90
64634;DHT22;51043;52.406;9.690;2022-09-13T08:44:32;18.90;99.90
64634;DHT22;51043;52.406;9.690;2022-09-13T08:47:24;18.80;99.90
64634;DHT22;51043;52.406;9.690;2022-09-13T09:01:07;19.00;99.90
64634;DHT22;51043;52.406;9.690;2022-09-13T09:03:41;19.20;99.90
64634;DHT22;51043;52.406;9.690;2022-09-13T09:06:14;19.30;99.90
64634;DHT22;51043;52.406;9.690;2022-09-13T09:08:47;19.40;99.90
64634;DHT22;51043;52.406;9.690;2022-09-13T09:11:33;19.60;99.90
64634;DHT22;51043;52.406;9.690;2022-09-13T09:14:23;19.80;99.90
64634;DHT22;51043;52.406;9.690;2022-09-13T09:16:59;20.20;99.90
64634;DHT22;51043;52.406;9.690;2022-09-13T09:19:37;20.60;99.90
64634;DHT22;51043;52.406;9.690;2022-09-13T09:22:12;20.80;99.90
64634;DHT22;51043;52.406;9.690;2022-09-13T09:24:43;20.80;99.90
64634;DHT22;51043;52.406;9.690;2022-09-13T09:27:14;20.70;99.90
64634;DHT22;51043;52.406;9.690;2022-09-13T09:29:42;20.50;99.90
64634;DHT22;51043;52.406;9.690;2022-09-13T09:37:41;20.60;99.90
64634;DHT22;51043;52.406;9.690;2022-09-13T09:40:12;20.60;99.90
64634;DHT22;51043;52.406;9.690;2022-09-13T09:42:45;20.50;99.90
64634;DHT22;51043;52.406;9.690;2022-09-13T09:45:32;20.30;99.90
64634;DHT22;51043;52.406;9.690;2022-09-13T09:48:05;20.20;99.90
64634;DHT22;51043;52.406;9.690;2022-09-13T09:50:43;20.10;99.90
64634;DHT22;51043;52.406;9.690;2022-09-13T09:53:14;20.20;99.90
64634;DHT22;51043;52.406;9.690;2022-09-13T09:55:49;20.20;99.90
64634;DHT22;51043;52.406;9.690;2022-09-13T09:58:38;20.30;99.90
64634;DHT22;51043;52.406;9.690;2022-09-13T10:06:31;20.90;99.90
64634;DHT22;51043;52.406;9.690;2022-09-13T10:09:04;21.60;99.90
64634;DHT22;51043;52.406;9.690;2022-09-13T10:11:51;22.20;99.90
64634;DHT22;51043;52.406;9.690;2022-09-13T10:14:29;22.70;99.90
64634;DHT22;51043;52.406;9.690;2022-09-13T10:19:31;22.30;99.90
64634;DHT22;51043;52.406;9.690;2022-09-13T10:22:09;22.10;99.90
64634;DHT22;51043;52.406;9.690;2022-09-13T10:24:37;21.70;99.90
64634;DHT22;51043;52.406;9.690;2022-09-13T10:27:22;21.50;99.90
64634;DHT22;51043;52.406;9.690;2022-09-13T10:29:53;21.50;99.90
64634;DHT22;51043;52.406;9.690;2022-09-13T10:32:22;21.30;99.90
64634;DHT22;51043;52.406;9.690;2022-09-13T10:34:49;21.10;99.90
64634;DHT22;51043;52.406;9.690;2022-09-13T10:37:21;20.80;99.90
64634;DHT22;51043;52.406;9.690;2022-09-13T10:42:53;21.10;99.90
64634;DHT22;51043;52.406;9.690;2022-09-13T10:45:29;21.10;99.90
64634;DHT22;51043;52.406;9.690;2022-09-13T10:48:04;21.30;99.90
64634;DHT22;51043;52.406;9.690;2022-09-13T10:50:34;21.30;99.90
64634;DHT22;51043;52.406;9.690;2022-09-13T10:53:02;21.20;99.90
64634;DHT22;51043;52.406;9.690;2022-09-13T10:55:37;21.00;99.90
64634;DHT22;51043;52.406;9.690;2022-09-13T11:06:17;20.20;99.90
64634;DHT22;51043;52.406;9.690;2022-09-13T11:09:15;20.30;99.90
64634;DHT22;51043;52.406;9.690;2022-09-13T11:18:08;20.50;99.90
64634;DHT22;51043;52.406;9.690;2022-09-13T11:20:53;20.40;99.90
64634;DHT22;51043;52.406;9.690;2022-09-13T11:23:36;20.40;99.90
64634;DHT22;51043;52.406;9.690;2022-09-13T11:29:17;20.30;99.90
64634;DHT22;51043;52.406;9.690;2022-09-13T11:32:23;20.20;99.90
64634;DHT22;51043;52.406;9.690;2022-09-13T11:35:02;20.10;99.90
64634;DHT22;51043;52.406;9.690;2022-09-13T11:43:50;19.90;99.90
64634;DHT22;51043;52.406;9.690;2022-09-13T11:46:35;19.90;99.90
64634;DHT22;51043;52.406;9.690;2022-09-13T11:51:53;19.90;99.90
64634;DHT22;51043;52.406;9.690;2022-09-13T11:54:38;19.90;99.90
64634;DHT22;51043;52.406;9.690;2022-09-13T11:57:12;19.90;99.90
64634;DHT22;51043;52.406;9.690;2022-09-13T12:00:19;19.90;99.90
64634;DHT22;51043;52.406;9.690;2022-09-13T12:03:16;19.90;99.90
64634;DHT22;51043;52.406;9.690;2022-09-13T12:05:54;19.90;99.90
64634;DHT22;51043;52.406;9.690;2022-09-13T12:08:37;20.00;99.90
64634;DHT22;51043;52.406;9.690;2022-09-13T12:11:16;20.10;99.90
64634;DHT22;51043;52.406;9.690;2022-09-13T12:13:49;19.90;99.90
64634;DHT22;51043;52.406;9.690;2022-09-13T12:16:24;19.90;99.90
64634;DHT22;51043;52.406;9.690;2022-09-13T12:18:57;19.80;99.90
64634;DHT22;51043;52.406;9.690;2022-09-13T12:21:29;19.80;99.90
64634;DHT22;51043;52.406;9.690;2022-09-13T12:24:38;19.80;99.90
64634;DHT22;51043;52.406;9.690;2022-09-13T12:30:18;19.70;99.90
64634;DHT22;51043;52.406;9.690;2022-09-13T12:32:49;19.50;99.90
64634;DHT22;51043;52.406;9.690;2022-09-13T12:35:28;19.40;99.90
64634;DHT22;51043;52.406;9.690;2022-09-13T12:38:13;19.50;99.90
64634;DHT22;51043;52.406;9.690;2022-09-13T12:41:10;19.70;99.90
64634;DHT22;51043;52.406;9.690;2022-09-13T12:52:09;20.40;99.90
64634;DHT22;51043;52.406;9.690;2022-09-13T12:57:48;20.10;99.90
64634;DHT22;51043;52.406;9.690;2022-09-13T13:00:25;20.00;99.90
64634;DHT22;51043;52.406;9.690;2022-09-13T13:03:02;20.30;99.90
64634;DHT22;51043;52.406;9.690;2022-09-13T13:05:37;20.80;99.90
64634;DHT22;51043;52.406;9.690;2022-09-13T13:11:11;21.80;99.90
64634;DHT22;51043;52.406;9.690;2022-09-13T13:13:52;22.40;99.90
64634;DHT22;51043;52.406;9.690;2022-09-13T13:16:32;22.50;99.90
64634;DHT22;51043;52.406;9.690;2022-09-13T13:19:02;22.60;99.90
64634;DHT22;51043;52.406;9.690;2022-09-13T13:21:33;22.90;99.90
64634;DHT22;51043;52.406;9.690;2022-09-13T13:26:49;23.00;99.90
64634;DHT22;51043;52.406;9.690;2022-09-13T13:29:28;22.80;99.90
64634;DHT22;51043;52.406;9.690;2022-09-13T13:39:39;22.30;99.90
64634;DHT22;51043;52.406;9.690;2022-09-13T13:49:42;21.90;99.90
64634;DHT22;51043;52.406;9.690;2022-09-13T13:57:39;21.70;99.90
64634;DHT22;51043;52.406;9.690;2022-09-13T14:00:13;21.70;99.90
64634;DHT22;51043;52.406;9.690;2022-09-13T14:20:06;22.50;99.90
64634;DHT22;51043;52.406;9.690;2022-09-13T14:22:35;22.60;99.90
64634;DHT22;51043;52.406;9.690;2022-09-13T14:25:32;22.60;99.90
64634;DHT22;51043;52.406;9.690;2022-09-13T14:27:59;22.60;99.90
64634;DHT22;51043;52.406;9.690;2022-09-13T14:30:33;22.60;99.90
64634;DHT22;51043;52.406;9.690;2022-09-13T14:33:01;22.40;99.90
64634;DHT22;51043;52.406;9.690;2022-09-13T14:35:32;22.30;99.90
64634;DHT22;51043;52.406;9.690;2022-09-13T14:38:33;22.30;99.90
64634;DHT22;51043;52.406;9.690;2022-09-13T14:41:22;22.30;99.90
64634;DHT22;51043;52.406;9.690;2022-09-13T14:44:22;22.20;99.90
64634;DHT22;51043;52.406;9.690;2022-09-13T14:47:34;22.20;99.90
64634;DHT22;51043;52.406;9.690;2022-09-13T14:50:06;22.20;99.90
64634;DHT22;51043;52.406;9.690;2022-09-13T14:52:51;22.20;99.90
64634;DHT22;51043;52.406;9.690;2022-09-13T14:55:23;22.20;99.90
64634;DHT22;51043;52.406;9.690;2022-09-13T14:57:55;22.30;99.90
64634;DHT22;51043;52.406;9.690;2022-09-13T15:00:24;22.40;99.90
64634;DHT22;51043;52.406;9.690;2022-09-13T15:02:58;22.40;99.90
64634;DHT22;51043;52.406;9.690;2022-09-13T15:05:31;22.40;99.90
64634;DHT22;51043;52.406;9.690;2022-09-13T15:07:58;22.30;99.90
64634;DHT22;51043;52.406;9.690;2022-09-13T15:10:30;22.20;99.90
64634;DHT22;51043;52.406;9.690;2022-09-13T15:13:05;22.20;99.90
64634;DHT22;51043;52.406;9.690;2022-09-13T15:15:38;22.20;99.90
64634;DHT22;51043;52.406;9.690;2022-09-13T15:20:57;22.00;99.90
64634;DHT22;51043;52.406;9.690;2022-09-13T15:26:12;21.70;99.90
64634;DHT22;51043;52.406;9.690;2022-09-13T15:28:50;21.60;99.90
64634;DHT22;51043;52.406;9.690;2022-09-13T15:31:22;21.50;99.90
64634;DHT22;51043;52.406;9.690;2022-09-13T15:36:48;21.50;99.90
64634;DHT22;51043;52.406;9.690;2022-09-13T15:39:40;21.30;99.90
64634;DHT22;51043;52.406;9.690;2022-09-13T15:42:08;21.30;99.90
64634;DHT22;51043;52.406;9.690;2022-09-13T15:44:34;21.20;99.90
64634;DHT22;51043;52.406;9.690;2022-09-13T15:47:14;21.30;99.90
64634;DHT22;51043;52.406;9.690;2022-09-13T15:49:49;21.30;99.90
64634;DHT22;51043;52.406;9.690;2022-09-13T15:52:18;21.40;99.90
64634;DHT22;51043;52.406;9.690;2022-09-13T15:54:47;21.40;99.90
64634;DHT22;51043;52.406;9.690;2022-09-13T15:57:26;21.40;99.90
64634;DHT22;51043;52.406;9.690;2022-09-13T15:59:54;21.40;99.90
64634;DHT22;51043;52.406;9.690;2022-09-13T16:02:25;21.40;99.90
64634;DHT22;51043;52.406;9.690;2022-09-13T16:04:55;21.30;99.90
64634;DHT22;51043;52.406;9.690;2022-09-13T16:07:24;21.20;99.90
64634;DHT22;51043;52.406;9.690;2022-09-13T16:09:54;21.20;99.90
64634;DHT22;51043;52.406;9.690;2022-09-13T16:12:24;21.20;99.90
64634;DHT22;51043;52.406;9.690;2022-09-13T16:15:04;21.20;99.90
64634;DHT22;51043;52.406;9.690;2022-09-13T16:17:31;21.30;99.90
64634;DHT22;51043;52.406;9.690;2022-09-13T16:19:58;21.40;99.90
64634;DHT22;51043;52.406;9.690;2022-09-13T16:22:25;21.40;99.90
64634;DHT22;51043;52.406;9.690;2022-09-13T16:24:52;21.40;99.90
64634;DHT22;51043;52.406;9.690;2022-09-13T16:27:20;21.40;99.90
64634;DHT22;51043;52.406;9.690;2022-09-13T16:29:47;21.40;99.90
64634;DHT22;51043;52.406;9.690;2022-09-13T16:32:14;21.30;99.90
64634;DHT22;51043;52.406;9.690;2022-09-13T16:34:41;21.20;99.90
64634;DHT22;51043;52.406;9.690;2022-09-13T16:37:14;21.10;99.90
64634;DHT22;51043;52.406;9.690;2022-09-13T16:39:41;21.00;99.90
64634;DHT22;51043;52.406;9.690;2022-09-13T16:42:08;20.90;99.90
64634;DHT22;51043;52.406;9.690;2022-09-13T16:44:35;20.80;99.90
64634;DHT22;51043;52.406;9.690;2022-09-13T16:47:02;20.70;99.90
64634;DHT22;51043;52.406;9.690;2022-09-13T16:49:29;20.60;99.90
64634;DHT22;51043;52.406;9.690;2022-09-13T16:51:59;20.60;99.90
64634;DHT22;51043;52.406;9.690;2022-09-13T16:54:28;20.30;99.90
64634;DHT22;51043;52.406;9.690;2022-09-13T16:57:04;20.20;99.90
64634;DHT22;51043;52.406;9.690;2022-09-13T16:59:33;20.00;99.90
64634;DHT22;51043;52.406;9.690;2022-09-13T17:02:02;19.80;99.90
64634;DHT22;51043;52.406;9.690;2022-09-13T17:04:29;19.60;99.90
64634;DHT22;51043;52.406;9.690;2022-09-13T17:07:06;19.60;99.90
64634;DHT22;51043;52.406;9.690;2022-09-13T17:09:34;19.30;99.90
64634;DHT22;51043;52.406;9.690;2022-09-13T17:12:02;19.10;99.90
64634;DHT22;51043;52.406;9.690;2022-09-13T17:14:29;18.90;99.90
64634;DHT22;51043;52.406;9.690;2022-09-13T17:16:56;18.60;99.90
64634;DHT22;51043;52.406;9.690;2022-09-13T17:19:30;18.50;99.90
64634;DHT22;51043;52.406;9.690;2022-09-13T17:22:01;18.50;99.90
64634;DHT22;51043;52.406;9.690;2022-09-13T17:24:30;18.40;99.90
64634;DHT22;51043;52.406;9.690;2022-09-13T17:26:57;18.30;99.90
64634;DHT22;51043;52.406;9.690;2022-09-13T17:29:25;18.20;99.90
64634;DHT22;51043;52.406;9.690;2022-09-13T17:31:57;18.10;99.90
64634;DHT22;51043;52.406;9.690;2022-09-13T17:34:25;18.10;99.90
64634;DHT22;51043;52.406;9.690;2022-09-13T17:36:51;17.90;99.90
64634;DHT22;51043;52.406;9.690;2022-09-13T17:39:19;17.70;99.90
64634;DHT22;51043;52.406;9.690;2022-09-13T17:41:46;17.80;99.90
64634;DHT22;51043;52.406;9.690;2022-09-13T17:44:17;17.70;99.90
64634;DHT22;51043;52.406;9.690;2022-09-13T17:46:46;17.60;99.90
64634;DHT22;51043;52.406;9.690;2022-09-13T17:49:13;17.60;99.90
64634;DHT22;51043;52.406;9.690;2022-09-13T17:51:42;17.50;99.90
64634;DHT22;51043;52.406;9.690;2022-09-13T17:54:09;17.40;99.90
64634;DHT22;51043;52.406;9.690;2022-09-13T17:56:39;17.30;99.90
64634;DHT22;51043;52.406;9.690;2022-09-13T17:59:12;17.10;99.90
64634;DHT22;51043;52.406;9.690;2022-09-13T18:01:42;16.90;99.90
64634;DHT22;51043;52.406;9.690;2022-09-13T18:04:10;16.70;99.90
64634;DHT22;51043;52.406;9.690;2022-09-13T18:06:37;16.60;99.90
64634;DHT22;51043;52.406;9.690;2022-09-13T18:09:09;16.50;99.90
64634;DHT22;51043;52.406;9.690;2022-09-13T18:11:37;16.30;99.90
64634;DHT22;51043;52.406;9.690;2022-09-13T18:14:04;16.40;99.90
64634;DHT22;51043;52.406;9.690;2022-09-13T18:16:31;16.20;99.90
64634;DHT22;51043;52.406;9.690;2022-09-13T18:18:59;16.00;99.90
64634;DHT22;51043;52.406;9.690;2022-09-13T18:21:27;15.90;99.90
64634;DHT22;51043;52.406;9.690;2022-09-13T18:23:56;15.70;99.90
64634;DHT22;51043;52.406;9.690;2022-09-13T18:26:28;15.70;99.90
64634;DHT22;51043;52.406;9.690;2022-09-13T18:29:01;15.60;99.90
64634;DHT22;51043;52.406;9.690;2022-09-13T18:31:30;15.50;99.90
64634;DHT22;51043;52.406;9.690;2022-09-13T18:33:59;15.40;99.90
64634;DHT22;51043;52.406;9.690;2022-09-13T18:36:28;15.40;99.90
64634;DHT22;51043;52.406;9.690;2022-09-13T18:38:56;15.30;99.90
64634;DHT22;51043;52.406;9.690;2022-09-13T18:41:25;15.20;99.90
64634;DHT22;51043;52.406;9.690;2022-09-13T18:43:54;15.20;99.90
64634;DHT22;51043;52.406;9.690;2022-09-13T18:46:24;15.10;99.90
64634;DHT22;51043;52.406;9.690;2022-09-13T18:48:53;15.10;99.90
64634;DHT22;51043;52.406;9.690;2022-09-13T18:51:37;15.00;99.90
64634;DHT22;51043;52.406;9.690;2022-09-13T18:54:06;14.90;99.90
64634;DHT22;51043;52.406;9.690;2022-09-13T18:56:34;14.80;99.90
64634;DHT22;51043;52.406;9.690;2022-09-13T18:59:03;14.90;99.90
64634;DHT22;51043;52.406;9.690;2022-09-13T19:01:33;15.00;99.90
64634;DHT22;51043;52.406;9.690;2022-09-13T19:04:08;15.30;99.90
64634;DHT22;51043;52.406;9.690;2022-09-13T19:06:56;15.50;99.90